Oelwein, IA

7:31 PM CST on December 06, 2019 (GMT -0600)
Oelwein Municipal

Weather History for KOLZ - November, 2019

Change the Weather History Date:

Saturday, November 16, 2019

  Actual Average Record
Temperature  
Mean Temperature 34 °F -  
Max Temperature 39 °F 44 °F 69 °F (1953)
Min Temperature 28 °F 26 °F 3 °F (1959)
Degree Days  
Heating Degree Days 32    
Moisture  
Dew Point 33 °F    
Average Humidity 98    
Maximum Humidity 100    
Minimum Humidity 87    
Precipitation  
Precipitation 0.00 in - - ()
Sea Level Pressure  
Sea Level Pressure 30.22 in    
Wind  
Wind Speed 14 mph (SE)    
Max Wind Speed 22 mph    
Max Gust Speed 23 mph    
Visibility 6 miles    
Events      
Averages and records for this station are not official NWS values.
T = Trace of Precipitation, MM = Missing Value Source: NWS Daily Summary

Daily Weather History Graph

Daily Weather History Graph

Search for Another Location

Airport or City:

Astronomy

Nov. 16, 2019 Rise Set
Actual Time 7:00 AM CST 4:44 PM CST
Civil Twilight 6:29 AM CST 5:14 PM CST
Nautical Twilight 5:55 AM CST 5:49 PM CST
Astronomical Twilight 5:22 AM CST 6:22 PM CST
Moon 8:15 PM CST (11/16) 10:57 AM CST (11/16)
Length of Visible Light 10h 44m
Length of Day
9h 43m
Waning Gibbous, 82% of the Moon is Illuminated
Nov 16
Waning Gibbous
Nov 19
Last Quarter
Nov 26
New
Dec 4
First Quarter
Dec 11
Full

Hourly Weather History & Observations

Time (CST) Temp. Windchill Dew Point Humidity Pressure Visibility Wind Dir Wind Speed Gust Speed Precip Events Conditions
12:15 AM 32.0 °F 23.0 °F 32.0 °F 100% 30.34 in 10.0 mi SSE 11.5 mph - N/A   Clear
12:35 AM 32.0 °F 23.0 °F 32.0 °F 100% 30.34 in 10.0 mi SE 11.5 mph - N/A   Clear
12:55 AM 30.2 °F 20.8 °F 30.2 °F 100% 30.33 in 9.0 mi SE 11.5 mph - N/A   Clear
1:15 AM 30.2 °F 20.8 °F 30.2 °F 100% 30.33 in 9.0 mi SE 11.5 mph - N/A   Partly Cloudy
1:35 AM 30.2 °F 21.3 °F 30.2 °F 100% 30.33 in 8.0 mi SSE 10.4 mph - N/A   Mostly Cloudy
1:55 AM 30.2 °F 20.8 °F 30.2 °F 100% 30.34 in 8.0 mi SE 11.5 mph - N/A   Overcast
2:15 AM 30.2 °F 20.2 °F 30.2 °F 100% 30.34 in 7.0 mi SE 12.7 mph - N/A   Overcast
2:35 AM 30.2 °F 20.8 °F 30.2 °F 100% 30.33 in 7.0 mi SSE 11.5 mph - N/A   Overcast
2:55 AM 30.2 °F 20.2 °F 30.2 °F 100% 30.33 in 7.0 mi SE 12.7 mph - N/A   Overcast
3:15 AM 30.2 °F 20.8 °F 30.2 °F 100% 30.33 in 8.0 mi SE 11.5 mph - N/A   Overcast
3:35 AM 30.2 °F 20.2 °F 30.2 °F 100% 30.33 in 7.0 mi SE 12.7 mph - N/A   Overcast
3:55 AM 30.2 °F 19.8 °F 30.2 °F 100% 30.32 in 8.0 mi SE 13.8 mph - N/A   Scattered Clouds
4:15 AM 30.2 °F 19.8 °F 30.2 °F 100% 30.32 in 7.0 mi SE 13.8 mph - N/A   Clear
4:35 AM 30.2 °F 20.2 °F 30.2 °F 100% 30.32 in 7.0 mi SE 12.7 mph - N/A   Clear
4:55 AM 30.2 °F 20.2 °F 30.2 °F 100% 30.32 in 7.0 mi SE 12.7 mph - N/A   Clear
5:15 AM - - - N/A% 30.32 in 6.0 mi SE 13.8 mph - N/A   Clear
5:35 AM 28.4 °F 18.0 °F 28.4 °F 100% 30.32 in 5.0 mi SE 12.7 mph - N/A   Clear
5:55 AM 28.4 °F 17.0 °F 28.4 °F 100% 30.31 in 5.0 mi SE 15.0 mph - N/A   Clear
6:15 AM 28.4 °F 16.6 °F 28.4 °F 100% 30.31 in 5.0 mi SE 16.1 mph - N/A   Clear
6:35 AM 28.4 °F 17.0 °F 28.4 °F 100% 30.30 in 4.0 mi SE 15.0 mph - N/A   Partly Cloudy
6:55 AM 28.4 °F 17.0 °F 28.4 °F 100% 30.31 in 4.0 mi SE 15.0 mph - N/A   Mostly Cloudy
7:15 AM 28.4 °F 17.5 °F 28.4 °F 100% 30.31 in 3.0 mi SSE 13.8 mph - N/A   Mostly Cloudy
7:35 AM 28.4 °F 17.0 °F 28.4 °F 100% 30.31 in 3.0 mi SE 15.0 mph - N/A   Clear
7:55 AM 30.2 °F 19.3 °F 30.2 °F 100% 30.31 in 3.0 mi SE 15.0 mph - N/A   Clear
8:15 AM 30.2 °F 19.3 °F 30.2 °F 100% 30.31 in 3.0 mi SE 15.0 mph - N/A   Clear
8:35 AM 30.2 °F 19.8 °F 30.2 °F 100% 30.31 in 3.0 mi SSE 13.8 mph - N/A   Clear
8:55 AM 30.2 °F 19.3 °F 30.2 °F 100% 30.31 in 3.0 mi SSE 15.0 mph - N/A   Clear
9:15 AM 32.0 °F 21.6 °F 32.0 °F 100% 30.30 in 3.0 mi SSE 15.0 mph - N/A   Clear
9:35 AM 33.8 °F 23.9 °F 33.8 °F 100% 30.29 in 4.0 mi SSE 15.0 mph - N/A   Clear
9:55 AM 33.8 °F 23.9 °F 33.8 °F 100% 30.29 in 4.0 mi SSE 15.0 mph 20.7 mph N/A   Clear
10:35 AM 33.8 °F 24.3 °F 33.8 °F 100% 30.28 in 5.0 mi SSE 13.8 mph - N/A   Clear
10:55 AM 35.6 °F 26.6 °F 33.8 °F 93% 30.28 in 5.0 mi SSE 13.8 mph - N/A   Clear
11:15 AM 35.6 °F 26.6 °F 35.6 °F 100% 30.27 in 5.0 mi SSE 13.8 mph - N/A   Clear
11:55 AM 37.4 °F 28.9 °F 35.6 °F 93% 30.24 in 5.0 mi SSE 13.8 mph - N/A   Clear
12:15 PM 37.4 °F 27.5 °F 35.6 °F 93% 30.22 in 6.0 mi SSE 18.4 mph - N/A   Clear
12:35 PM 37.4 °F 27.5 °F 35.6 °F 93% 30.21 in 6.0 mi SSE 18.4 mph - N/A   Clear
12:55 PM 39.2 °F 30.8 °F 35.6 °F 87% 30.19 in 7.0 mi SSE 15.0 mph 21.9 mph N/A   Clear
1:15 PM 39.2 °F 30.2 °F 37.4 °F 93% 30.18 in 7.0 mi SE 17.3 mph - N/A   Clear
1:35 PM 39.2 °F 31.2 °F 37.4 °F 93% 30.18 in 7.0 mi SSE 13.8 mph 20.7 mph N/A   Clear
1:55 PM 39.2 °F 30.8 °F 37.4 °F 93% 30.17 in 7.0 mi SE 15.0 mph 20.7 mph N/A   Clear
2:15 PM 37.4 °F 28.5 °F 37.4 °F 100% 30.16 in 6.0 mi SE 15.0 mph 20.7 mph N/A   Clear
2:35 PM 39.2 °F 30.2 °F 37.4 °F 93% 30.15 in 6.0 mi SE 17.3 mph - N/A   Clear
3:15 PM 39.2 °F 30.8 °F 37.4 °F 93% 30.15 in 6.0 mi SE 15.0 mph 20.7 mph N/A   Clear
3:35 PM 39.2 °F 30.8 °F 37.4 °F 93% 30.14 in 6.0 mi SE 15.0 mph - N/A   Clear
3:55 PM 37.4 °F 28.9 °F 37.4 °F 100% 30.13 in 6.0 mi SE 13.8 mph - N/A   Clear
4:15 PM 37.4 °F 28.2 °F 35.6 °F 93% 30.13 in 4.0 mi SE 16.1 mph - N/A   Clear
4:35 PM 35.6 °F 25.9 °F 35.6 °F 100% 30.12 in 4.0 mi SE 16.1 mph - N/A   Clear
4:55 PM 35.6 °F 25.2 °F 35.6 °F 100% 30.10 in 4.0 mi SE 18.4 mph - N/A   Clear
5:35 PM 35.6 °F 25.9 °F 33.8 °F 93% 30.11 in 7.0 mi SE 16.1 mph - N/A   Overcast
5:55 PM 35.6 °F 25.2 °F 33.8 °F 93% 30.11 in 7.0 mi SE 18.4 mph - N/A   Overcast
6:15 PM 35.6 °F 25.5 °F 33.8 °F 93% 30.11 in 7.0 mi SE 17.3 mph - N/A   Mostly Cloudy
6:35 PM 33.8 °F 23.2 °F 33.8 °F 100% 30.11 in 7.0 mi SE 17.3 mph - N/A   Mostly Cloudy
6:55 PM 33.8 °F 22.5 °F 33.8 °F 100% 30.09 in 7.0 mi SE 19.6 mph - N/A   Overcast
7:15 PM 33.8 °F 21.9 °F 33.8 °F 100% 30.09 in 7.0 mi SE 21.9 mph - N/A   Overcast
7:35 PM 33.8 °F 23.2 °F 33.8 °F 100% 30.09 in 7.0 mi SE 17.3 mph 23.0 mph N/A   Scattered Clouds
7:55 PM 33.8 °F 22.8 °F 33.8 °F 100% 30.09 in 7.0 mi SE 18.4 mph - N/A   Mostly Cloudy
8:15 PM 33.8 °F 23.5 °F 33.8 °F 100% 30.08 in 5.0 mi SSE 16.1 mph - N/A   Overcast
8:35 PM 33.8 °F 23.9 °F 33.8 °F 100% 30.09 in 3.0 mi SSE 15.0 mph - N/A   Overcast
8:55 PM 33.8 °F 23.5 °F 33.8 °F 100% 30.09 in 7.0 mi SE 16.1 mph - N/A   Overcast
9:15 PM 35.6 °F 26.2 °F 33.8 °F 93% 30.10 in 7.0 mi SSE 15.0 mph - N/A   Overcast
9:35 PM 35.6 °F 27.1 °F 33.8 °F 93% 30.10 in 7.0 mi SSE 12.7 mph - N/A   Mostly Cloudy
9:55 PM 35.6 °F 25.9 °F 33.8 °F 93% 30.10 in 8.0 mi SSE 16.1 mph - N/A   Mostly Cloudy
10:15 PM 35.6 °F 26.6 °F 33.8 °F 93% 30.10 in 8.0 mi SSE 13.8 mph - N/A   Overcast
10:35 PM 33.8 °F 24.8 °F 33.8 °F 100% 30.09 in 7.0 mi SSE 12.7 mph - N/A   Mostly Cloudy
10:55 PM 33.8 °F 25.3 °F 33.8 °F 100% 30.09 in 7.0 mi SSE 11.5 mph - N/A   Partly Cloudy
11:15 PM 33.8 °F 25.3 °F 33.8 °F 100% 30.08 in 6.0 mi SSE 11.5 mph - N/A   Partly Cloudy
11:35 PM 33.8 °F 24.8 °F 33.8 °F 100% 30.08 in 6.0 mi SSE 12.7 mph - N/A   Partly Cloudy